sensor_id;sensor_type;location;lat;lon;timestamp;temperature;humidity
52965;DHT22;42923;53.220;6.528;2023-05-17T00:01:33;7.90;99.90
52965;DHT22;42923;53.220;6.528;2023-05-17T00:03:59;7.90;99.90
52965;DHT22;42923;53.220;6.528;2023-05-17T00:06:25;7.80;99.90
52965;DHT22;42923;53.220;6.528;2023-05-17T00:08:50;7.80;99.90
52965;DHT22;42923;53.220;6.528;2023-05-17T00:11:16;7.80;99.90
52965;DHT22;42923;53.220;6.528;2023-05-17T00:13:42;7.80;99.90
52965;DHT22;42923;53.220;6.528;2023-05-17T00:16:07;7.80;99.90
52965;DHT22;42923;53.220;6.528;2023-05-17T00:18:33;7.80;99.90
52965;DHT22;42923;53.220;6.528;2023-05-17T00:20:59;7.80;99.90
52965;DHT22;42923;53.220;6.528;2023-05-17T00:23:24;7.80;99.90
52965;DHT22;42923;53.220;6.528;2023-05-17T00:25:50;7.80;99.90
52965;DHT22;42923;53.220;6.528;2023-05-17T00:28:16;7.80;99.90
52965;DHT22;42923;53.220;6.528;2023-05-17T00:30:41;7.90;99.90
52965;DHT22;42923;53.220;6.528;2023-05-17T00:33:07;7.80;99.90
52965;DHT22;42923;53.220;6.528;2023-05-17T00:35:33;7.80;99.90
52965;DHT22;42923;53.220;6.528;2023-05-17T00:37:59;7.90;99.90
52965;DHT22;42923;53.220;6.528;2023-05-17T00:40:24;7.90;99.90
52965;DHT22;42923;53.220;6.528;2023-05-17T00:42:50;8.00;99.90
52965;DHT22;42923;53.220;6.528;2023-05-17T00:45:16;8.00;99.90
52965;DHT22;42923;53.220;6.528;2023-05-17T00:47:41;8.00;99.90
52965;DHT22;42923;53.220;6.528;2023-05-17T00:50:07;8.10;99.90
52965;DHT22;42923;53.220;6.528;2023-05-17T00:52:34;8.10;99.90
52965;DHT22;42923;53.220;6.528;2023-05-17T00:55:01;8.10;99.90
52965;DHT22;42923;53.220;6.528;2023-05-17T00:57:27;8.20;99.90
52965;DHT22;42923;53.220;6.528;2023-05-17T00:59:54;8.10;99.90
52965;DHT22;42923;53.220;6.528;2023-05-17T01:02:21;8.10;99.90
52965;DHT22;42923;53.220;6.528;2023-05-17T01:04:47;8.00;99.90
52965;DHT22;42923;53.220;6.528;2023-05-17T01:07:14;8.00;99.90
52965;DHT22;42923;53.220;6.528;2023-05-17T01:09:40;8.00;99.90
52965;DHT22;42923;53.220;6.528;2023-05-17T01:13:11;7.90;99.90
52965;DHT22;42923;53.220;6.528;2023-05-17T01:15:23;7.80;99.90
52965;DHT22;42923;53.220;6.528;2023-05-17T01:18:08;7.70;99.90
52965;DHT22;42923;53.220;6.528;2023-05-17T01:20:42;7.50;99.90
52965;DHT22;42923;53.220;6.528;2023-05-17T01:23:30;7.60;99.90
52965;DHT22;42923;53.220;6.528;2023-05-17T01:28:53;7.20;99.90
52965;DHT22;42923;53.220;6.528;2023-05-17T01:31:21;7.20;99.90
52965;DHT22;42923;53.220;6.528;2023-05-17T01:33:48;7.30;99.90
52965;DHT22;42923;53.220;6.528;2023-05-17T01:36:13;7.50;99.90
52965;DHT22;42923;53.220;6.528;2023-05-17T01:38:40;7.60;99.90
52965;DHT22;42923;53.220;6.528;2023-05-17T01:43:46;7.70;99.90
52965;DHT22;42923;53.220;6.528;2023-05-17T01:46:18;7.80;99.90
52965;DHT22;42923;53.220;6.528;2023-05-17T01:48:55;7.80;99.90
52965;DHT22;42923;53.220;6.528;2023-05-17T01:51:25;7.70;99.90
52965;DHT22;42923;53.220;6.528;2023-05-17T01:53:58;7.70;99.90
52965;DHT22;42923;53.220;6.528;2023-05-17T01:56:27;7.80;99.90
52965;DHT22;42923;53.220;6.528;2023-05-17T01:58:58;7.80;99.90
52965;DHT22;42923;53.220;6.528;2023-05-17T02:01:25;7.70;99.90
52965;DHT22;42923;53.220;6.528;2023-05-17T02:03:53;7.70;99.90
52965;DHT22;42923;53.220;6.528;2023-05-17T02:06:18;7.60;99.90
52965;DHT22;42923;53.220;6.528;2023-05-17T02:08:44;7.60;99.90
52965;DHT22;42923;53.220;6.528;2023-05-17T02:11:10;7.50;99.90
52965;DHT22;42923;53.220;6.528;2023-05-17T02:13:35;7.50;99.90
52965;DHT22;42923;53.220;6.528;2023-05-17T02:16:02;7.50;99.90
52965;DHT22;42923;53.220;6.528;2023-05-17T02:18:28;7.40;99.90
52965;DHT22;42923;53.220;6.528;2023-05-17T02:20:54;7.50;99.90
52965;DHT22;42923;53.220;6.528;2023-05-17T02:23:20;7.30;99.90
52965;DHT22;42923;53.220;6.528;2023-05-17T02:25:46;7.30;99.90
52965;DHT22;42923;53.220;6.528;2023-05-17T02:28:12;7.30;99.90
52965;DHT22;42923;53.220;6.528;2023-05-17T02:30:37;7.30;99.90
52965;DHT22;42923;53.220;6.528;2023-05-17T02:33:07;7.30;99.90
52965;DHT22;42923;53.220;6.528;2023-05-17T02:35:32;7.30;99.90
52965;DHT22;42923;53.220;6.528;2023-05-17T02:37:59;7.40;99.90
52965;DHT22;42923;53.220;6.528;2023-05-17T02:40:24;7.40;99.90
52965;DHT22;42923;53.220;6.528;2023-05-17T02:42:50;7.40;99.90
52965;DHT22;42923;53.220;6.528;2023-05-17T02:45:16;7.40;99.90
52965;DHT22;42923;53.220;6.528;2023-05-17T02:47:42;7.40;99.90
52965;DHT22;42923;53.220;6.528;2023-05-17T02:50:08;7.50;99.90
52965;DHT22;42923;53.220;6.528;2023-05-17T02:52:34;7.50;99.90
52965;DHT22;42923;53.220;6.528;2023-05-17T02:55:00;7.50;99.90
52965;DHT22;42923;53.220;6.528;2023-05-17T02:57:26;7.50;99.90
52965;DHT22;42923;53.220;6.528;2023-05-17T02:59:52;7.50;99.90
52965;DHT22;42923;53.220;6.528;2023-05-17T03:02:18;7.40;99.90
52965;DHT22;42923;53.220;6.528;2023-05-17T03:04:44;7.40;99.90
52965;DHT22;42923;53.220;6.528;2023-05-17T03:07:10;7.40;99.90
52965;DHT22;42923;53.220;6.528;2023-05-17T03:09:37;7.40;99.90
52965;DHT22;42923;53.220;6.528;2023-05-17T03:12:03;7.40;99.90
52965;DHT22;42923;53.220;6.528;2023-05-17T03:14:32;7.40;99.90
52965;DHT22;42923;53.220;6.528;2023-05-17T03:16:58;7.40;99.90
52965;DHT22;42923;53.220;6.528;2023-05-17T03:19:24;7.40;99.90
52965;DHT22;42923;53.220;6.528;2023-05-17T03:21:51;7.30;99.90
52965;DHT22;42923;53.220;6.528;2023-05-17T03:24:17;7.30;99.90
52965;DHT22;42923;53.220;6.528;2023-05-17T03:26:43;7.30;99.90
52965;DHT22;42923;53.220;6.528;2023-05-17T03:29:11;7.30;99.90
52965;DHT22;42923;53.220;6.528;2023-05-17T03:31:39;7.30;99.90
52965;DHT22;42923;53.220;6.528;2023-05-17T03:34:05;7.30;99.90
52965;DHT22;42923;53.220;6.528;2023-05-17T03:36:33;7.30;99.90
52965;DHT22;42923;53.220;6.528;2023-05-17T03:38:59;7.40;99.90
52965;DHT22;42923;53.220;6.528;2023-05-17T03:41:25;7.40;99.90
52965;DHT22;42923;53.220;6.528;2023-05-17T03:43:51;7.40;99.90
52965;DHT22;42923;53.220;6.528;2023-05-17T03:46:20;7.50;99.90
52965;DHT22;42923;53.220;6.528;2023-05-17T03:48:47;7.50;99.90
52965;DHT22;42923;53.220;6.528;2023-05-17T03:51:13;7.50;99.90
52965;DHT22;42923;53.220;6.528;2023-05-17T03:53:39;7.60;99.90
52965;DHT22;42923;53.220;6.528;2023-05-17T03:56:08;7.60;99.90
52965;DHT22;42923;53.220;6.528;2023-05-17T03:58:35;7.70;99.90
52965;DHT22;42923;53.220;6.528;2023-05-17T04:01:01;7.70;99.90
52965;DHT22;42923;53.220;6.528;2023-05-17T04:03:27;7.70;99.90
52965;DHT22;42923;53.220;6.528;2023-05-17T04:06:00;7.70;99.90
52965;DHT22;42923;53.220;6.528;2023-05-17T04:08:25;7.70;99.90
52965;DHT22;42923;53.220;6.528;2023-05-17T04:10:52;7.70;99.90
52965;DHT22;42923;53.220;6.528;2023-05-17T04:13:18;7.70;99.90
52965;DHT22;42923;53.220;6.528;2023-05-17T04:15:44;7.80;99.90
52965;DHT22;42923;53.220;6.528;2023-05-17T04:18:11;7.80;99.90
52965;DHT22;42923;53.220;6.528;2023-05-17T04:20:38;7.80;99.90
52965;DHT22;42923;53.220;6.528;2023-05-17T04:23:03;7.90;99.90
52965;DHT22;42923;53.220;6.528;2023-05-17T04:25:33;8.00;99.90
52965;DHT22;42923;53.220;6.528;2023-05-17T04:27:59;8.00;99.90
52965;DHT22;42923;53.220;6.528;2023-05-17T04:30:25;8.00;99.90
52965;DHT22;42923;53.220;6.528;2023-05-17T04:32:50;8.00;99.90
52965;DHT22;42923;53.220;6.528;2023-05-17T04:35:16;8.10;99.90
52965;DHT22;42923;53.220;6.528;2023-05-17T04:37:45;8.20;99.90
52965;DHT22;42923;53.220;6.528;2023-05-17T04:40:18;8.20;99.90
52965;DHT22;42923;53.220;6.528;2023-05-17T04:42:45;8.20;99.90
52965;DHT22;42923;53.220;6.528;2023-05-17T04:45:10;8.20;99.90
52965;DHT22;42923;53.220;6.528;2023-05-17T04:47:37;8.20;99.90
52965;DHT22;42923;53.220;6.528;2023-05-17T04:50:03;8.40;99.90
52965;DHT22;42923;53.220;6.528;2023-05-17T04:52:30;8.30;99.90
52965;DHT22;42923;53.220;6.528;2023-05-17T04:54:56;8.30;99.90
52965;DHT22;42923;53.220;6.528;2023-05-17T04:57:22;8.30;99.90
52965;DHT22;42923;53.220;6.528;2023-05-17T05:00:04;8.40;99.90
52965;DHT22;42923;53.220;6.528;2023-05-17T05:02:42;8.30;99.90
52965;DHT22;42923;53.220;6.528;2023-05-17T05:05:09;8.30;99.90
52965;DHT22;42923;53.220;6.528;2023-05-17T05:07:36;8.30;99.90
52965;DHT22;42923;53.220;6.528;2023-05-17T05:10:05;8.30;99.90
52965;DHT22;42923;53.220;6.528;2023-05-17T05:12:31;8.30;99.90
52965;DHT22;42923;53.220;6.528;2023-05-17T05:14:57;8.40;99.90
52965;DHT22;42923;53.220;6.528;2023-05-17T05:17:23;8.40;99.90
52965;DHT22;42923;53.220;6.528;2023-05-17T05:19:49;8.50;99.90
52965;DHT22;42923;53.220;6.528;2023-05-17T05:22:16;8.50;99.90
52965;DHT22;42923;53.220;6.528;2023-05-17T05:24:43;8.60;99.90
52965;DHT22;42923;53.220;6.528;2023-05-17T05:27:09;8.60;99.90
52965;DHT22;42923;53.220;6.528;2023-05-17T05:29:36;8.70;99.90
52965;DHT22;42923;53.220;6.528;2023-05-17T05:32:02;8.70;99.90
52965;DHT22;42923;53.220;6.528;2023-05-17T05:34:28;8.80;99.90
52965;DHT22;42923;53.220;6.528;2023-05-17T05:36:56;8.90;99.90
52965;DHT22;42923;53.220;6.528;2023-05-17T05:39:21;9.00;99.90
52965;DHT22;42923;53.220;6.528;2023-05-17T05:41:47;9.10;99.90
52965;DHT22;42923;53.220;6.528;2023-05-17T05:44:13;9.20;99.90
52965;DHT22;42923;53.220;6.528;2023-05-17T05:46:40;9.20;99.90
52965;DHT22;42923;53.220;6.528;2023-05-17T05:49:06;9.30;99.90
52965;DHT22;42923;53.220;6.528;2023-05-17T05:51:32;9.30;99.90
52965;DHT22;42923;53.220;6.528;2023-05-17T05:54:00;9.40;99.90
52965;DHT22;42923;53.220;6.528;2023-05-17T05:56:26;9.40;99.90
52965;DHT22;42923;53.220;6.528;2023-05-17T05:58:54;9.60;99.90
52965;DHT22;42923;53.220;6.528;2023-05-17T06:01:20;9.50;99.90
52965;DHT22;42923;53.220;6.528;2023-05-17T06:03:46;9.60;99.90
52965;DHT22;42923;53.220;6.528;2023-05-17T06:06:12;9.60;99.90
52965;DHT22;42923;53.220;6.528;2023-05-17T06:08:39;9.60;99.90
52965;DHT22;42923;53.220;6.528;2023-05-17T06:11:05;9.70;99.90
52965;DHT22;42923;53.220;6.528;2023-05-17T06:13:31;9.80;99.90
52965;DHT22;42923;53.220;6.528;2023-05-17T06:15:56;9.90;99.90
52965;DHT22;42923;53.220;6.528;2023-05-17T06:18:24;9.90;99.90
52965;DHT22;42923;53.220;6.528;2023-05-17T06:20:49;9.90;99.90
52965;DHT22;42923;53.220;6.528;2023-05-17T06:23:15;9.90;99.90
52965;DHT22;42923;53.220;6.528;2023-05-17T06:25:41;9.90;99.90
52965;DHT22;42923;53.220;6.528;2023-05-17T06:28:07;9.90;99.90
52965;DHT22;42923;53.220;6.528;2023-05-17T06:30:34;9.90;99.90
52965;DHT22;42923;53.220;6.528;2023-05-17T06:33:00;9.90;99.90
52965;DHT22;42923;53.220;6.528;2023-05-17T06:35:26;9.90;99.90
52965;DHT22;42923;53.220;6.528;2023-05-17T06:37:51;10.00;99.90
52965;DHT22;42923;53.220;6.528;2023-05-17T06:40:17;9.90;99.90
52965;DHT22;42923;53.220;6.528;2023-05-17T06:42:43;9.90;99.90
52965;DHT22;42923;53.220;6.528;2023-05-17T06:45:09;10.00;99.90
52965;DHT22;42923;53.220;6.528;2023-05-17T06:47:35;9.90;99.90
52965;DHT22;42923;53.220;6.528;2023-05-17T06:50:00;9.90;99.90
52965;DHT22;42923;53.220;6.528;2023-05-17T06:52:26;10.00;99.90
52965;DHT22;42923;53.220;6.528;2023-05-17T06:54:52;10.10;99.90
52965;DHT22;42923;53.220;6.528;2023-05-17T06:57:18;10.00;99.90
52965;DHT22;42923;53.220;6.528;2023-05-17T06:59:43;10.00;99.90
52965;DHT22;42923;53.220;6.528;2023-05-17T07:02:09;10.10;99.90
52965;DHT22;42923;53.220;6.528;2023-05-17T07:04:35;10.20;99.90
52965;DHT22;42923;53.220;6.528;2023-05-17T07:07:01;10.10;99.90
52965;DHT22;42923;53.220;6.528;2023-05-17T07:09:26;10.10;99.90
52965;DHT22;42923;53.220;6.528;2023-05-17T07:11:52;10.10;99.90
52965;DHT22;42923;53.220;6.528;2023-05-17T07:14:18;10.10;99.90
52965;DHT22;42923;53.220;6.528;2023-05-17T07:16:43;10.30;99.90
52965;DHT22;42923;53.220;6.528;2023-05-17T07:19:09;10.10;99.90
52965;DHT22;42923;53.220;6.528;2023-05-17T07:21:35;10.10;99.90
52965;DHT22;42923;53.220;6.528;2023-05-17T07:24:01;10.20;99.90
52965;DHT22;42923;53.220;6.528;2023-05-17T07:26:27;10.30;99.90
52965;DHT22;42923;53.220;6.528;2023-05-17T07:28:52;10.40;99.90
52965;DHT22;42923;53.220;6.528;2023-05-17T07:31:18;10.50;99.90
52965;DHT22;42923;53.220;6.528;2023-05-17T07:33:43;10.60;99.90
52965;DHT22;42923;53.220;6.528;2023-05-17T07:36:09;10.80;99.90
52965;DHT22;42923;53.220;6.528;2023-05-17T07:38:35;11.00;99.90
52965;DHT22;42923;53.220;6.528;2023-05-17T07:41:01;11.00;99.90
52965;DHT22;42923;53.220;6.528;2023-05-17T07:43:28;11.30;99.90
52965;DHT22;42923;53.220;6.528;2023-05-17T07:45:53;11.30;99.90
52965;DHT22;42923;53.220;6.528;2023-05-17T07:48:19;11.30;99.90
52965;DHT22;42923;53.220;6.528;2023-05-17T07:50:45;11.30;99.90
52965;DHT22;42923;53.220;6.528;2023-05-17T07:53:11;11.20;99.90
52965;DHT22;42923;53.220;6.528;2023-05-17T07:55:37;11.10;99.90
52965;DHT22;42923;53.220;6.528;2023-05-17T07:58:02;11.00;99.90
52965;DHT22;42923;53.220;6.528;2023-05-17T08:00:28;11.00;99.90
52965;DHT22;42923;53.220;6.528;2023-05-17T08:02:55;10.90;99.90
52965;DHT22;42923;53.220;6.528;2023-05-17T08:05:21;10.90;99.90
52965;DHT22;42923;53.220;6.528;2023-05-17T08:07:46;11.00;99.90
52965;DHT22;42923;53.220;6.528;2023-05-17T08:10:12;11.10;99.90
52965;DHT22;42923;53.220;6.528;2023-05-17T08:12:38;11.20;99.90
52965;DHT22;42923;53.220;6.528;2023-05-17T08:15:04;11.30;99.90
52965;DHT22;42923;53.220;6.528;2023-05-17T08:17:30;11.30;99.90
52965;DHT22;42923;53.220;6.528;2023-05-17T08:19:56;11.40;99.90
52965;DHT22;42923;53.220;6.528;2023-05-17T08:22:21;11.60;99.90
52965;DHT22;42923;53.220;6.528;2023-05-17T08:24:47;11.80;99.90
52965;DHT22;42923;53.220;6.528;2023-05-17T08:27:12;11.80;99.90
52965;DHT22;42923;53.220;6.528;2023-05-17T08:29:38;11.90;99.90
52965;DHT22;42923;53.220;6.528;2023-05-17T08:32:04;12.00;99.90
52965;DHT22;42923;53.220;6.528;2023-05-17T08:34:30;12.00;99.90
52965;DHT22;42923;53.220;6.528;2023-05-17T08:36:56;12.10;99.90
52965;DHT22;42923;53.220;6.528;2023-05-17T08:39:22;12.20;99.90
52965;DHT22;42923;53.220;6.528;2023-05-17T08:41:48;12.30;99.90
52965;DHT22;42923;53.220;6.528;2023-05-17T08:44:14;12.50;99.90
52965;DHT22;42923;53.220;6.528;2023-05-17T08:46:42;12.70;99.90
52965;DHT22;42923;53.220;6.528;2023-05-17T08:49:09;12.60;99.90
52965;DHT22;42923;53.220;6.528;2023-05-17T08:51:39;12.60;99.90
52965;DHT22;42923;53.220;6.528;2023-05-17T08:54:05;12.50;99.90
52965;DHT22;42923;53.220;6.528;2023-05-17T08:56:31;12.50;99.90
52965;DHT22;42923;53.220;6.528;2023-05-17T08:58:57;12.60;99.90
52965;DHT22;42923;53.220;6.528;2023-05-17T09:01:24;12.70;99.90
52965;DHT22;42923;53.220;6.528;2023-05-17T09:03:50;12.90;99.90
52965;DHT22;42923;53.220;6.528;2023-05-17T09:06:23;12.60;99.90
52965;DHT22;42923;53.220;6.528;2023-05-17T09:08:53;12.60;99.90
52965;DHT22;42923;53.220;6.528;2023-05-17T09:11:24;12.60;99.90
52965;DHT22;42923;53.220;6.528;2023-05-17T09:13:51;12.70;99.90
52965;DHT22;42923;53.220;6.528;2023-05-17T09:16:18;12.80;99.90
52965;DHT22;42923;53.220;6.528;2023-05-17T09:18:53;12.80;99.90
52965;DHT22;42923;53.220;6.528;2023-05-17T09:21:20;12.90;99.90
52965;DHT22;42923;53.220;6.528;2023-05-17T09:23:47;13.00;99.90
52965;DHT22;42923;53.220;6.528;2023-05-17T09:26:13;13.10;99.90
52965;DHT22;42923;53.220;6.528;2023-05-17T09:28:40;13.20;99.90
52965;DHT22;42923;53.220;6.528;2023-05-17T09:31:07;13.20;99.90
52965;DHT22;42923;53.220;6.528;2023-05-17T09:33:34;13.30;99.90
52965;DHT22;42923;53.220;6.528;2023-05-17T09:36:00;13.30;99.90
52965;DHT22;42923;53.220;6.528;2023-05-17T09:38:26;13.40;99.90
52965;DHT22;42923;53.220;6.528;2023-05-17T09:40:53;13.30;99.50
52965;DHT22;42923;53.220;6.528;2023-05-17T09:43:23;13.20;98.00
52965;DHT22;42923;53.220;6.528;2023-05-17T09:45:56;13.20;97.50
52965;DHT22;42923;53.220;6.528;2023-05-17T09:48:25;13.00;97.30
52965;DHT22;42923;53.220;6.528;2023-05-17T09:50:51;12.90;98.10
52965;DHT22;42923;53.220;6.528;2023-05-17T09:53:33;13.00;98.60
52965;DHT22;42923;53.220;6.528;2023-05-17T09:56:05;13.20;98.60
52965;DHT22;42923;53.220;6.528;2023-05-17T09:58:32;13.40;97.80
52965;DHT22;42923;53.220;6.528;2023-05-17T10:01:00;13.60;97.70
52965;DHT22;42923;53.220;6.528;2023-05-17T10:03:32;13.60;96.80
52965;DHT22;42923;53.220;6.528;2023-05-17T10:06:00;13.70;94.60
52965;DHT22;42923;53.220;6.528;2023-05-17T10:08:28;13.60;94.30
52965;DHT22;42923;53.220;6.528;2023-05-17T10:11:07;13.50;92.70
52965;DHT22;42923;53.220;6.528;2023-05-17T10:13:39;13.50;93.40
52965;DHT22;42923;53.220;6.528;2023-05-17T10:16:06;13.60;94.30
52965;DHT22;42923;53.220;6.528;2023-05-17T10:18:32;13.70;92.10
52965;DHT22;42923;53.220;6.528;2023-05-17T10:20:58;13.50;90.60
52965;DHT22;42923;53.220;6.528;2023-05-17T10:23:26;13.40;91.30
52965;DHT22;42923;53.220;6.528;2023-05-17T10:25:54;13.40;92.00
52965;DHT22;42923;53.220;6.528;2023-05-17T10:28:21;13.40;92.00
52965;DHT22;42923;53.220;6.528;2023-05-17T10:30:47;13.40;91.40
52965;DHT22;42923;53.220;6.528;2023-05-17T10:33:16;13.50;92.50
52965;DHT22;42923;53.220;6.528;2023-05-17T10:35:43;13.80;94.80
52965;DHT22;42923;53.220;6.528;2023-05-17T10:38:11;14.10;92.30
52965;DHT22;42923;53.220;6.528;2023-05-17T10:40:37;14.20;90.60
52965;DHT22;42923;53.220;6.528;2023-05-17T10:43:05;14.10;90.00
52965;DHT22;42923;53.220;6.528;2023-05-17T10:45:32;13.90;89.20
52965;DHT22;42923;53.220;6.528;2023-05-17T10:48:01;13.80;89.60
52965;DHT22;42923;53.220;6.528;2023-05-17T10:50:30;13.70;91.40
52965;DHT22;42923;53.220;6.528;2023-05-17T10:52:58;13.60;91.50
52965;DHT22;42923;53.220;6.528;2023-05-17T10:55:39;13.60;92.20
52965;DHT22;42923;53.220;6.528;2023-05-17T10:58:16;13.70;91.90
52965;DHT22;42923;53.220;6.528;2023-05-17T11:00:48;14.00;93.60
52965;DHT22;42923;53.220;6.528;2023-05-17T11:06:10;14.70;90.80
52965;DHT22;42923;53.220;6.528;2023-05-17T11:08:46;14.50;86.60
52965;DHT22;42923;53.220;6.528;2023-05-17T11:11:30;14.10;85.50
52965;DHT22;42923;53.220;6.528;2023-05-17T11:13:56;13.90;88.20
52965;DHT22;42923;53.220;6.528;2023-05-17T11:16:32;13.90;87.50
52965;DHT22;42923;53.220;6.528;2023-05-17T11:19:07;13.90;87.20
52965;DHT22;42923;53.220;6.528;2023-05-17T11:21:33;14.00;90.10
52965;DHT22;42923;53.220;6.528;2023-05-17T11:24:01;14.40;91.60
52965;DHT22;42923;53.220;6.528;2023-05-17T11:26:32;14.80;89.50
52965;DHT22;42923;53.220;6.528;2023-05-17T11:29:05;14.90;85.70
52965;DHT22;42923;53.220;6.528;2023-05-17T11:31:33;14.90;85.10
52965;DHT22;42923;53.220;6.528;2023-05-17T11:33:59;15.10;84.60
52965;DHT22;42923;53.220;6.528;2023-05-17T11:36:26;15.40;84.10
52965;DHT22;42923;53.220;6.528;2023-05-17T11:39:22;15.50;83.60
52965;DHT22;42923;53.220;6.528;2023-05-17T11:41:55;15.60;79.00
52965;DHT22;42923;53.220;6.528;2023-05-17T11:44:28;15.40;79.00
52965;DHT22;42923;53.220;6.528;2023-05-17T11:47:01;15.50;79.10
52965;DHT22;42923;53.220;6.528;2023-05-17T11:49:30;15.50;78.40
52965;DHT22;42923;53.220;6.528;2023-05-17T11:52:15;15.30;77.50
52965;DHT22;42923;53.220;6.528;2023-05-17T11:54:41;15.20;78.70
52965;DHT22;42923;53.220;6.528;2023-05-17T11:57:08;15.40;78.60
52965;DHT22;42923;53.220;6.528;2023-05-17T11:59:36;15.50;77.40
52965;DHT22;42923;53.220;6.528;2023-05-17T12:02:05;15.60;77.20
52965;DHT22;42923;53.220;6.528;2023-05-17T12:04:37;15.80;76.70
52965;DHT22;42923;53.220;6.528;2023-05-17T12:07:03;15.90;76.20
52965;DHT22;42923;53.220;6.528;2023-05-17T12:09:29;15.90;74.80
52965;DHT22;42923;53.220;6.528;2023-05-17T12:11:56;15.70;73.50
52965;DHT22;42923;53.220;6.528;2023-05-17T12:14:23;15.40;73.90
52965;DHT22;42923;53.220;6.528;2023-05-17T12:16:53;15.20;74.50
52965;DHT22;42923;53.220;6.528;2023-05-17T12:19:23;15.00;74.80
52965;DHT22;42923;53.220;6.528;2023-05-17T12:22:07;15.00;76.30
52965;DHT22;42923;53.220;6.528;2023-05-17T12:24:40;15.40;79.00
52965;DHT22;42923;53.220;6.528;2023-05-17T12:27:07;16.00;79.30
52965;DHT22;42923;53.220;6.528;2023-05-17T12:29:33;16.50;76.40
52965;DHT22;42923;53.220;6.528;2023-05-17T12:31:59;16.50;74.60
52965;DHT22;42923;53.220;6.528;2023-05-17T12:34:29;16.30;73.20
52965;DHT22;42923;53.220;6.528;2023-05-17T12:36:55;16.30;73.80
52965;DHT22;42923;53.220;6.528;2023-05-17T12:39:22;16.30;73.70
52965;DHT22;42923;53.220;6.528;2023-05-17T12:41:52;16.00;71.40
52965;DHT22;42923;53.220;6.528;2023-05-17T12:44:19;15.50;71.30
52965;DHT22;42923;53.220;6.528;2023-05-17T12:46:47;15.30;72.80
52965;DHT22;42923;53.220;6.528;2023-05-17T12:49:18;15.30;73.50
52965;DHT22;42923;53.220;6.528;2023-05-17T12:51:46;15.30;73.70
52965;DHT22;42923;53.220;6.528;2023-05-17T12:56:48;15.10;73.90
52965;DHT22;42923;53.220;6.528;2023-05-17T12:59:16;15.20;74.60
52965;DHT22;42923;53.220;6.528;2023-05-17T13:01:46;15.40;73.90
52965;DHT22;42923;53.220;6.528;2023-05-17T13:04:14;15.70;74.20
52965;DHT22;42923;53.220;6.528;2023-05-17T13:06:52;16.00;73.60
52965;DHT22;42923;53.220;6.528;2023-05-17T13:09:20;15.90;71.70
52965;DHT22;42923;53.220;6.528;2023-05-17T13:12:04;15.80;71.70
52965;DHT22;42923;53.220;6.528;2023-05-17T13:17:22;16.10;73.40
52965;DHT22;42923;53.220;6.528;2023-05-17T13:19:48;16.50;72.50
52965;DHT22;42923;53.220;6.528;2023-05-17T13:22:14;17.00;72.30
52965;DHT22;42923;53.220;6.528;2023-05-17T13:24:41;16.90;69.30
52965;DHT22;42923;53.220;6.528;2023-05-17T13:27:07;16.30;69.20
52965;DHT22;42923;53.220;6.528;2023-05-17T13:29:34;15.90;70.10
52965;DHT22;42923;53.220;6.528;2023-05-17T13:32:01;15.40;70.10
52965;DHT22;42923;53.220;6.528;2023-05-17T13:34:27;15.10;71.00
52965;DHT22;42923;53.220;6.528;2023-05-17T13:36:52;14.90;71.90
52965;DHT22;42923;53.220;6.528;2023-05-17T13:39:18;14.80;72.90
52965;DHT22;42923;53.220;6.528;2023-05-17T13:41:45;14.80;74.20
52965;DHT22;42923;53.220;6.528;2023-05-17T13:44:11;15.10;75.30
52965;DHT22;42923;53.220;6.528;2023-05-17T13:46:37;15.20;74.80
52965;DHT22;42923;53.220;6.528;2023-05-17T13:49:02;15.10;73.60
52965;DHT22;42923;53.220;6.528;2023-05-17T13:51:30;15.00;73.60
52965;DHT22;42923;53.220;6.528;2023-05-17T13:53:56;14.90;73.90
52965;DHT22;42923;53.220;6.528;2023-05-17T13:56:21;14.80;72.90
52965;DHT22;42923;53.220;6.528;2023-05-17T13:58:47;14.60;73.60
52965;DHT22;42923;53.220;6.528;2023-05-17T14:01:14;14.50;73.80
52965;DHT22;42923;53.220;6.528;2023-05-17T14:03:40;14.20;74.00
52965;DHT22;42923;53.220;6.528;2023-05-17T14:06:06;14.10;74.80
52965;DHT22;42923;53.220;6.528;2023-05-17T14:08:32;14.20;75.60
52965;DHT22;42923;53.220;6.528;2023-05-17T14:10:58;14.50;75.80
52965;DHT22;42923;53.220;6.528;2023-05-17T14:13:25;14.60;75.10
52965;DHT22;42923;53.220;6.528;2023-05-17T14:15:51;14.40;74.40
52965;DHT22;42923;53.220;6.528;2023-05-17T14:18:17;14.40;74.40
52965;DHT22;42923;53.220;6.528;2023-05-17T14:20:43;14.20;74.50
52965;DHT22;42923;53.220;6.528;2023-05-17T14:23:09;14.00;75.10
52965;DHT22;42923;53.220;6.528;2023-05-17T14:25:34;13.90;76.00
52965;DHT22;42923;53.220;6.528;2023-05-17T14:28:00;13.90;75.80
52965;DHT22;42923;53.220;6.528;2023-05-17T14:30:26;13.80;75.60
52965;DHT22;42923;53.220;6.528;2023-05-17T14:32:51;13.70;75.20
52965;DHT22;42923;53.220;6.528;2023-05-17T14:35:17;13.60;75.50
52965;DHT22;42923;53.220;6.528;2023-05-17T14:37:43;13.50;75.10
52965;DHT22;42923;53.220;6.528;2023-05-17T14:40:09;13.50;75.10
52965;DHT22;42923;53.220;6.528;2023-05-17T14:42:36;13.50;75.10
52965;DHT22;42923;53.220;6.528;2023-05-17T14:45:02;13.50;75.00
52965;DHT22;42923;53.220;6.528;2023-05-17T14:47:28;13.70;75.40
52965;DHT22;42923;53.220;6.528;2023-05-17T14:49:54;13.80;75.00
52965;DHT22;42923;53.220;6.528;2023-05-17T14:52:20;13.70;74.80
52965;DHT22;42923;53.220;6.528;2023-05-17T14:54:46;13.50;74.90
52965;DHT22;42923;53.220;6.528;2023-05-17T14:57:12;13.30;75.70
52965;DHT22;42923;53.220;6.528;2023-05-17T14:59:38;13.30;76.10
52965;DHT22;42923;53.220;6.528;2023-05-17T15:02:05;13.30;76.40
52965;DHT22;42923;53.220;6.528;2023-05-17T15:04:30;13.90;77.30
52965;DHT22;42923;53.220;6.528;2023-05-17T15:06:57;14.80;76.70
52965;DHT22;42923;53.220;6.528;2023-05-17T15:09:23;15.50;75.70
52965;DHT22;42923;53.220;6.528;2023-05-17T15:11:49;15.60;73.20
52965;DHT22;42923;53.220;6.528;2023-05-17T15:14:18;15.30;73.60
52965;DHT22;42923;53.220;6.528;2023-05-17T15:16:47;15.20;73.50
52965;DHT22;42923;53.220;6.528;2023-05-17T15:19:14;15.20;73.80
52965;DHT22;42923;53.220;6.528;2023-05-17T15:21:43;14.90;73.00
52965;DHT22;42923;53.220;6.528;2023-05-17T15:24:09;14.60;74.10
52965;DHT22;42923;53.220;6.528;2023-05-17T15:26:34;14.30;74.30
52965;DHT22;42923;53.220;6.528;2023-05-17T15:29:00;14.00;75.30
52965;DHT22;42923;53.220;6.528;2023-05-17T15:31:26;13.90;75.70
52965;DHT22;42923;53.220;6.528;2023-05-17T15:33:53;13.70;76.30
52965;DHT22;42923;53.220;6.528;2023-05-17T15:36:19;13.60;77.00
52965;DHT22;42923;53.220;6.528;2023-05-17T15:38:45;13.50;77.20
52965;DHT22;42923;53.220;6.528;2023-05-17T15:41:13;13.40;77.10
52965;DHT22;42923;53.220;6.528;2023-05-17T15:43:40;13.30;76.10
52965;DHT22;42923;53.220;6.528;2023-05-17T15:46:06;13.00;76.80
52965;DHT22;42923;53.220;6.528;2023-05-17T15:48:32;12.80;76.00
52965;DHT22;42923;53.220;6.528;2023-05-17T15:50:58;12.60;76.10
52965;DHT22;42923;53.220;6.528;2023-05-17T15:53:25;12.60;77.30